sensor_id;sensor_type;location;lat;lon;timestamp;P1;durP1;ratioP1;P2;durP2;ratioP2
2201;SDS011;1107;48.654;9.250;2022-10-16T00:00:40;1.80;;;1.70;;
2201;SDS011;1107;48.654;9.250;2022-10-16T00:03:08;1.63;;;1.33;;
2201;SDS011;1107;48.654;9.250;2022-10-16T00:05:40;7.63;;;1.60;;
2201;SDS011;1107;48.654;9.250;2022-10-16T00:08:08;1.50;;;1.20;;
2201;SDS011;1107;48.654;9.250;2022-10-16T00:10:38;1.97;;;1.77;;
2201;SDS011;1107;48.654;9.250;2022-10-16T00:13:06;1.60;;;1.37;;
2201;SDS011;1107;48.654;9.250;2022-10-16T00:15:33;1.57;;;1.13;;
2201;SDS011;1107;48.654;9.250;2022-10-16T00:18:02;1.63;;;1.40;;
2201;SDS011;1107;48.654;9.250;2022-10-16T00:20:30;1.70;;;1.60;;
2201;SDS011;1107;48.654;9.250;2022-10-16T00:22:59;1.70;;;1.43;;
2201;SDS011;1107;48.654;9.250;2022-10-16T00:25:26;1.77;;;1.57;;
2201;SDS011;1107;48.654;9.250;2022-10-16T00:27:55;2.77;;;2.40;;
2201;SDS011;1107;48.654;9.250;2022-10-16T00:30:22;1.87;;;1.70;;
2201;SDS011;1107;48.654;9.250;2022-10-16T00:32:49;2.43;;;1.30;;
2201;SDS011;1107;48.654;9.250;2022-10-16T00:35:16;4.50;;;1.80;;
2201;SDS011;1107;48.654;9.250;2022-10-16T00:37:43;4.17;;;1.73;;
2201;SDS011;1107;48.654;9.250;2022-10-16T00:40:10;8.00;;;1.60;;
2201;SDS011;1107;48.654;9.250;2022-10-16T00:42:37;1.80;;;1.60;;
2201;SDS011;1107;48.654;9.250;2022-10-16T00:45:08;4.80;;;1.60;;
2201;SDS011;1107;48.654;9.250;2022-10-16T00:47:36;1.70;;;1.40;;
2201;SDS011;1107;48.654;9.250;2022-10-16T00:50:06;1.60;;;1.40;;
2201;SDS011;1107;48.654;9.250;2022-10-16T00:52:36;2.00;;;1.50;;
2201;SDS011;1107;48.654;9.250;2022-10-16T00:55:07;2.33;;;2.13;;
2201;SDS011;1107;48.654;9.250;2022-10-16T00:57:35;1.67;;;1.30;;
2201;SDS011;1107;48.654;9.250;2022-10-16T01:00:03;1.60;;;1.17;;
2201;SDS011;1107;48.654;9.250;2022-10-16T01:02:33;1.50;;;1.03;;
2201;SDS011;1107;48.654;9.250;2022-10-16T01:05:00;1.93;;;1.73;;
2201;SDS011;1107;48.654;9.250;2022-10-16T01:07:30;1.90;;;1.70;;
2201;SDS011;1107;48.654;9.250;2022-10-16T01:10:07;2.00;;;1.80;;
2201;SDS011;1107;48.654;9.250;2022-10-16T01:12:40;1.70;;;1.60;;
2201;SDS011;1107;48.654;9.250;2022-10-16T01:15:12;1.70;;;1.50;;
2201;SDS011;1107;48.654;9.250;2022-10-16T01:17:47;1.70;;;1.60;;
2201;SDS011;1107;48.654;9.250;2022-10-16T01:20:20;1.60;;;1.40;;
2201;SDS011;1107;48.654;9.250;2022-10-16T01:22:56;2.00;;;1.73;;
2201;SDS011;1107;48.654;9.250;2022-10-16T01:25:33;1.70;;;1.60;;
2201;SDS011;1107;48.654;9.250;2022-10-16T01:28:12;2.10;;;1.87;;
2201;SDS011;1107;48.654;9.250;2022-10-16T01:30:42;1.90;;;1.50;;
2201;SDS011;1107;48.654;9.250;2022-10-16T01:33:13;1.70;;;1.57;;
2201;SDS011;1107;48.654;9.250;2022-10-16T01:35:44;1.97;;;1.80;;
2201;SDS011;1107;48.654;9.250;2022-10-16T01:38:15;1.70;;;1.50;;
2201;SDS011;1107;48.654;9.250;2022-10-16T01:40:47;1.70;;;1.60;;
2201;SDS011;1107;48.654;9.250;2022-10-16T01:43:20;2.93;;;1.90;;
2201;SDS011;1107;48.654;9.250;2022-10-16T01:45:51;1.80;;;1.53;;
2201;SDS011;1107;48.654;9.250;2022-10-16T01:48:19;1.90;;;1.80;;
2201;SDS011;1107;48.654;9.250;2022-10-16T01:50:50;1.70;;;1.60;;
2201;SDS011;1107;48.654;9.250;2022-10-16T01:53:22;1.97;;;1.67;;
2201;SDS011;1107;48.654;9.250;2022-10-16T01:55:50;1.77;;;1.67;;
2201;SDS011;1107;48.654;9.250;2022-10-16T01:58:22;2.10;;;1.90;;
2201;SDS011;1107;48.654;9.250;2022-10-16T02:00:51;2.00;;;1.80;;
2201;SDS011;1107;48.654;9.250;2022-10-16T02:03:20;2.20;;;2.00;;
2201;SDS011;1107;48.654;9.250;2022-10-16T02:05:49;2.30;;;2.10;;
2201;SDS011;1107;48.654;9.250;2022-10-16T02:08:19;1.93;;;1.73;;
2201;SDS011;1107;48.654;9.250;2022-10-16T02:10:48;2.33;;;1.83;;
2201;SDS011;1107;48.654;9.250;2022-10-16T02:13:17;2.07;;;1.87;;
2201;SDS011;1107;48.654;9.250;2022-10-16T02:15:49;7.40;;;2.13;;
2201;SDS011;1107;48.654;9.250;2022-10-16T02:18:16;1.97;;;1.77;;
2201;SDS011;1107;48.654;9.250;2022-10-16T02:20:46;2.00;;;1.80;;
2201;SDS011;1107;48.654;9.250;2022-10-16T02:23:19;2.20;;;1.90;;
2201;SDS011;1107;48.654;9.250;2022-10-16T02:25:54;2.47;;;2.27;;
2201;SDS011;1107;48.654;9.250;2022-10-16T02:28:23;2.33;;;2.13;;
2201;SDS011;1107;48.654;9.250;2022-10-16T02:30:56;2.93;;;2.73;;
2201;SDS011;1107;48.654;9.250;2022-10-16T02:33:26;2.93;;;2.73;;
2201;SDS011;1107;48.654;9.250;2022-10-16T02:35:54;2.50;;;2.30;;
2201;SDS011;1107;48.654;9.250;2022-10-16T02:38:21;7.70;;;2.90;;
2201;SDS011;1107;48.654;9.250;2022-10-16T02:40:50;2.30;;;2.10;;
2201;SDS011;1107;48.654;9.250;2022-10-16T02:43:18;2.60;;;2.37;;
2201;SDS011;1107;48.654;9.250;2022-10-16T02:45:46;2.47;;;2.27;;
2201;SDS011;1107;48.654;9.250;2022-10-16T02:48:14;2.30;;;2.10;;
2201;SDS011;1107;48.654;9.250;2022-10-16T02:50:41;2.70;;;2.50;;
2201;SDS011;1107;48.654;9.250;2022-10-16T02:53:08;2.50;;;2.30;;
2201;SDS011;1107;48.654;9.250;2022-10-16T02:55:35;3.03;;;2.83;;
2201;SDS011;1107;48.654;9.250;2022-10-16T02:58:02;2.73;;;2.53;;
2201;SDS011;1107;48.654;9.250;2022-10-16T03:00:29;2.63;;;2.43;;
2201;SDS011;1107;48.654;9.250;2022-10-16T03:02:56;3.60;;;3.00;;
2201;SDS011;1107;48.654;9.250;2022-10-16T03:05:24;1.80;;;1.70;;
2201;SDS011;1107;48.654;9.250;2022-10-16T03:07:51;2.30;;;2.10;;
2201;SDS011;1107;48.654;9.250;2022-10-16T03:10:18;2.33;;;2.00;;
2201;SDS011;1107;48.654;9.250;2022-10-16T03:12:45;2.10;;;1.90;;
2201;SDS011;1107;48.654;9.250;2022-10-16T03:15:12;1.70;;;1.53;;
2201;SDS011;1107;48.654;9.250;2022-10-16T03:17:39;1.60;;;1.20;;
2201;SDS011;1107;48.654;9.250;2022-10-16T03:20:06;1.83;;;1.50;;
2201;SDS011;1107;48.654;9.250;2022-10-16T03:22:35;1.60;;;1.20;;
2201;SDS011;1107;48.654;9.250;2022-10-16T03:25:02;2.17;;;1.67;;
2201;SDS011;1107;48.654;9.250;2022-10-16T03:27:30;1.60;;;1.20;;
2201;SDS011;1107;48.654;9.250;2022-10-16T03:29:57;2.40;;;1.30;;
2201;SDS011;1107;48.654;9.250;2022-10-16T03:32:23;3.33;;;1.27;;
2201;SDS011;1107;48.654;9.250;2022-10-16T03:34:51;1.50;;;1.10;;
2201;SDS011;1107;48.654;9.250;2022-10-16T03:37:19;1.50;;;1.00;;
2201;SDS011;1107;48.654;9.250;2022-10-16T03:39:48;3.20;;;1.10;;
2201;SDS011;1107;48.654;9.250;2022-10-16T03:42:14;1.77;;;1.27;;
2201;SDS011;1107;48.654;9.250;2022-10-16T03:44:41;1.70;;;1.10;;
2201;SDS011;1107;48.654;9.250;2022-10-16T03:47:08;1.90;;;1.30;;
2201;SDS011;1107;48.654;9.250;2022-10-16T03:49:35;1.60;;;1.20;;
2201;SDS011;1107;48.654;9.250;2022-10-16T03:52:02;1.87;;;1.60;;
2201;SDS011;1107;48.654;9.250;2022-10-16T03:54:29;1.90;;;1.37;;
2201;SDS011;1107;48.654;9.250;2022-10-16T03:56:58;1.60;;;1.30;;
2201;SDS011;1107;48.654;9.250;2022-10-16T03:59:24;2.00;;;1.80;;
2201;SDS011;1107;48.654;9.250;2022-10-16T04:01:51;3.33;;;3.13;;
2201;SDS011;1107;48.654;9.250;2022-10-16T04:04:18;10.90;;;10.20;;
2201;SDS011;1107;48.654;9.250;2022-10-16T04:06:45;5.40;;;5.10;;
2201;SDS011;1107;48.654;9.250;2022-10-16T04:09:12;3.43;;;3.23;;
2201;SDS011;1107;48.654;9.250;2022-10-16T04:11:39;3.33;;;3.13;;
2201;SDS011;1107;48.654;9.250;2022-10-16T04:14:08;2.43;;;2.23;;
2201;SDS011;1107;48.654;9.250;2022-10-16T04:16:34;1.60;;;1.20;;
2201;SDS011;1107;48.654;9.250;2022-10-16T04:19:01;1.53;;;1.00;;
2201;SDS011;1107;48.654;9.250;2022-10-16T04:21:28;1.53;;;1.17;;
2201;SDS011;1107;48.654;9.250;2022-10-16T04:23:55;2.17;;;1.40;;
2201;SDS011;1107;48.654;9.250;2022-10-16T04:26:22;1.60;;;1.10;;
2201;SDS011;1107;48.654;9.250;2022-10-16T04:28:49;1.60;;;1.27;;
2201;SDS011;1107;48.654;9.250;2022-10-16T04:31:18;4.60;;;1.30;;
2201;SDS011;1107;48.654;9.250;2022-10-16T04:33:45;3.10;;;1.20;;
2201;SDS011;1107;48.654;9.250;2022-10-16T04:36:12;1.50;;;1.10;;
2201;SDS011;1107;48.654;9.250;2022-10-16T04:38:39;1.40;;;0.97;;
2201;SDS011;1107;48.654;9.250;2022-10-16T04:41:06;2.97;;;2.77;;
2201;SDS011;1107;48.654;9.250;2022-10-16T04:43:33;12.63;;;4.03;;
2201;SDS011;1107;48.654;9.250;2022-10-16T04:46:00;3.37;;;3.17;;
2201;SDS011;1107;48.654;9.250;2022-10-16T04:48:31;1.73;;;1.63;;
2201;SDS011;1107;48.654;9.250;2022-10-16T04:50:58;1.67;;;1.30;;
2201;SDS011;1107;48.654;9.250;2022-10-16T04:53:25;5.50;;;1.97;;
2201;SDS011;1107;48.654;9.250;2022-10-16T04:55:52;1.73;;;1.63;;
2201;SDS011;1107;48.654;9.250;2022-10-16T04:58:19;1.70;;;1.50;;
2201;SDS011;1107;48.654;9.250;2022-10-16T05:00:46;1.83;;;1.63;;
2201;SDS011;1107;48.654;9.250;2022-10-16T05:03:13;1.60;;;1.33;;
2201;SDS011;1107;48.654;9.250;2022-10-16T05:05:43;7.73;;;1.37;;
2201;SDS011;1107;48.654;9.250;2022-10-16T05:08:11;1.57;;;1.40;;
2201;SDS011;1107;48.654;9.250;2022-10-16T05:10:39;1.40;;;0.90;;
2201;SDS011;1107;48.654;9.250;2022-10-16T05:13:07;3.67;;;1.93;;
2201;SDS011;1107;48.654;9.250;2022-10-16T05:15:34;1.70;;;1.40;;
2201;SDS011;1107;48.654;9.250;2022-10-16T05:18:01;1.50;;;1.30;;
2201;SDS011;1107;48.654;9.250;2022-10-16T05:20:28;4.77;;;4.47;;
2201;SDS011;1107;48.654;9.250;2022-10-16T05:22:56;3.73;;;2.33;;
2201;SDS011;1107;48.654;9.250;2022-10-16T05:25:23;1.70;;;1.60;;
2201;SDS011;1107;48.654;9.250;2022-10-16T05:27:50;2.17;;;1.83;;
2201;SDS011;1107;48.654;9.250;2022-10-16T05:30:18;2.00;;;1.80;;
2201;SDS011;1107;48.654;9.250;2022-10-16T05:32:46;1.97;;;1.83;;
2201;SDS011;1107;48.654;9.250;2022-10-16T05:35:14;1.97;;;1.87;;
2201;SDS011;1107;48.654;9.250;2022-10-16T05:37:41;4.53;;;1.77;;
2201;SDS011;1107;48.654;9.250;2022-10-16T05:40:10;1.80;;;1.70;;
2201;SDS011;1107;48.654;9.250;2022-10-16T05:42:38;6.43;;;1.50;;
2201;SDS011;1107;48.654;9.250;2022-10-16T05:45:05;2.60;;;1.83;;
2201;SDS011;1107;48.654;9.250;2022-10-16T05:47:34;1.60;;;1.10;;
2201;SDS011;1107;48.654;9.250;2022-10-16T05:50:01;1.50;;;1.00;;
2201;SDS011;1107;48.654;9.250;2022-10-16T05:52:29;1.73;;;1.20;;
2201;SDS011;1107;48.654;9.250;2022-10-16T05:54:56;4.73;;;1.30;;
2201;SDS011;1107;48.654;9.250;2022-10-16T05:57:24;1.57;;;1.20;;
2201;SDS011;1107;48.654;9.250;2022-10-16T05:59:51;2.00;;;1.60;;
2201;SDS011;1107;48.654;9.250;2022-10-16T06:02:18;2.83;;;2.63;;
2201;SDS011;1107;48.654;9.250;2022-10-16T06:04:45;2.70;;;2.50;;
2201;SDS011;1107;48.654;9.250;2022-10-16T06:07:12;3.10;;;2.83;;
2201;SDS011;1107;48.654;9.250;2022-10-16T06:09:39;4.07;;;3.10;;
2201;SDS011;1107;48.654;9.250;2022-10-16T06:12:06;3.40;;;3.10;;
2201;SDS011;1107;48.654;9.250;2022-10-16T06:14:34;3.57;;;3.27;;
2201;SDS011;1107;48.654;9.250;2022-10-16T06:17:01;5.20;;;4.57;;
2201;SDS011;1107;48.654;9.250;2022-10-16T06:19:28;6.63;;;5.67;;
2201;SDS011;1107;48.654;9.250;2022-10-16T06:21:56;9.03;;;6.83;;
2201;SDS011;1107;48.654;9.250;2022-10-16T06:24:24;11.77;;;5.40;;
2201;SDS011;1107;48.654;9.250;2022-10-16T06:26:51;5.43;;;4.90;;
2201;SDS011;1107;48.654;9.250;2022-10-16T06:29:17;6.30;;;4.67;;
2201;SDS011;1107;48.654;9.250;2022-10-16T06:31:46;3.47;;;3.27;;
2201;SDS011;1107;48.654;9.250;2022-10-16T06:34:13;2.97;;;2.77;;
2201;SDS011;1107;48.654;9.250;2022-10-16T06:36:40;2.63;;;2.43;;
2201;SDS011;1107;48.654;9.250;2022-10-16T06:39:08;2.33;;;2.13;;
2201;SDS011;1107;48.654;9.250;2022-10-16T06:41:35;1.90;;;1.63;;
2201;SDS011;1107;48.654;9.250;2022-10-16T06:44:04;1.70;;;1.60;;
2201;SDS011;1107;48.654;9.250;2022-10-16T06:46:32;1.77;;;1.40;;
2201;SDS011;1107;48.654;9.250;2022-10-16T06:49:02;3.23;;;1.40;;
2201;SDS011;1107;48.654;9.250;2022-10-16T06:51:28;2.03;;;1.83;;
2201;SDS011;1107;48.654;9.250;2022-10-16T06:53:57;1.60;;;1.40;;
2201;SDS011;1107;48.654;9.250;2022-10-16T06:56:24;5.10;;;1.80;;
2201;SDS011;1107;48.654;9.250;2022-10-16T06:58:54;3.87;;;1.47;;
2201;SDS011;1107;48.654;9.250;2022-10-16T07:01:22;2.70;;;1.60;;
2201;SDS011;1107;48.654;9.250;2022-10-16T07:03:50;2.00;;;1.80;;
2201;SDS011;1107;48.654;9.250;2022-10-16T07:06:19;1.43;;;0.97;;
2201;SDS011;1107;48.654;9.250;2022-10-16T07:08:48;1.97;;;1.57;;
2201;SDS011;1107;48.654;9.250;2022-10-16T07:11:16;1.57;;;1.07;;
2201;SDS011;1107;48.654;9.250;2022-10-16T07:13:44;2.00;;;1.83;;
2201;SDS011;1107;48.654;9.250;2022-10-16T07:16:13;1.87;;;1.40;;
2201;SDS011;1107;48.654;9.250;2022-10-16T07:18:41;2.20;;;1.47;;
2201;SDS011;1107;48.654;9.250;2022-10-16T07:21:11;1.70;;;1.40;;
2201;SDS011;1107;48.654;9.250;2022-10-16T07:23:41;2.20;;;1.40;;
2201;SDS011;1107;48.654;9.250;2022-10-16T07:26:09;2.00;;;1.70;;
2201;SDS011;1107;48.654;9.250;2022-10-16T07:28:36;1.80;;;1.70;;
2201;SDS011;1107;48.654;9.250;2022-10-16T07:31:05;1.57;;;1.10;;
2201;SDS011;1107;48.654;9.250;2022-10-16T07:33:33;1.60;;;1.33;;
2201;SDS011;1107;48.654;9.250;2022-10-16T07:36:01;1.60;;;1.20;;
2201;SDS011;1107;48.654;9.250;2022-10-16T07:38:28;1.60;;;1.33;;
2201;SDS011;1107;48.654;9.250;2022-10-16T07:40:57;1.60;;;1.40;;
2201;SDS011;1107;48.654;9.250;2022-10-16T07:43:24;2.57;;;2.07;;
2201;SDS011;1107;48.654;9.250;2022-10-16T07:45:51;3.20;;;1.93;;
2201;SDS011;1107;48.654;9.250;2022-10-16T07:48:19;2.37;;;1.50;;
2201;SDS011;1107;48.654;9.250;2022-10-16T07:50:47;1.50;;;1.23;;
2201;SDS011;1107;48.654;9.250;2022-10-16T07:53:14;10.77;;;1.40;;
2201;SDS011;1107;48.654;9.250;2022-10-16T07:55:41;2.20;;;2.00;;
2201;SDS011;1107;48.654;9.250;2022-10-16T07:58:10;1.83;;;1.73;;
2201;SDS011;1107;48.654;9.250;2022-10-16T08:00:37;1.70;;;1.60;;
2201;SDS011;1107;48.654;9.250;2022-10-16T08:03:04;1.83;;;1.67;;
2201;SDS011;1107;48.654;9.250;2022-10-16T08:05:31;1.60;;;1.40;;
2201;SDS011;1107;48.654;9.250;2022-10-16T08:08:00;1.70;;;1.60;;
2201;SDS011;1107;48.654;9.250;2022-10-16T08:10:27;2.20;;;2.00;;
2201;SDS011;1107;48.654;9.250;2022-10-16T08:12:56;4.63;;;1.60;;
2201;SDS011;1107;48.654;9.250;2022-10-16T08:15:25;2.87;;;1.50;;
2201;SDS011;1107;48.654;9.250;2022-10-16T08:17:55;1.80;;;1.50;;
2201;SDS011;1107;48.654;9.250;2022-10-16T08:20:24;1.80;;;1.60;;
2201;SDS011;1107;48.654;9.250;2022-10-16T08:22:51;2.10;;;1.90;;
2201;SDS011;1107;48.654;9.250;2022-10-16T08:25:19;2.00;;;1.80;;
2201;SDS011;1107;48.654;9.250;2022-10-16T08:27:46;2.20;;;1.63;;
2201;SDS011;1107;48.654;9.250;2022-10-16T08:30:13;2.37;;;1.77;;
2201;SDS011;1107;48.654;9.250;2022-10-16T08:32:42;3.80;;;1.93;;
2201;SDS011;1107;48.654;9.250;2022-10-16T08:35:09;2.03;;;1.83;;
2201;SDS011;1107;48.654;9.250;2022-10-16T08:37:36;2.00;;;1.80;;
2201;SDS011;1107;48.654;9.250;2022-10-16T08:40:04;2.47;;;1.60;;
2201;SDS011;1107;48.654;9.250;2022-10-16T08:42:39;1.93;;;1.73;;
2201;SDS011;1107;48.654;9.250;2022-10-16T08:45:23;1.70;;;1.60;;
2201;SDS011;1107;48.654;9.250;2022-10-16T08:48:03;2.00;;;1.90;;
2201;SDS011;1107;48.654;9.250;2022-10-16T08:50:38;1.80;;;1.53;;
2201;SDS011;1107;48.654;9.250;2022-10-16T08:53:06;2.20;;;1.70;;
2201;SDS011;1107;48.654;9.250;2022-10-16T08:55:41;3.53;;;1.37;;
2201;SDS011;1107;48.654;9.250;2022-10-16T08:58:13;1.60;;;1.20;;
2201;SDS011;1107;48.654;9.250;2022-10-16T09:00:42;1.80;;;1.57;;
2201;SDS011;1107;48.654;9.250;2022-10-16T09:03:16;2.00;;;1.80;;
2201;SDS011;1107;48.654;9.250;2022-10-16T09:08:46;20.37;;;2.40;;
2201;SDS011;1107;48.654;9.250;2022-10-16T09:11:23;3.33;;;3.03;;
2201;SDS011;1107;48.654;9.250;2022-10-16T09:13:58;3.40;;;2.53;;
2201;SDS011;1107;48.654;9.250;2022-10-16T09:16:32;10.30;;;2.20;;
2201;SDS011;1107;48.654;9.250;2022-10-16T09:19:05;3.50;;;3.20;;
2201;SDS011;1107;48.654;9.250;2022-10-16T09:21:41;4.53;;;1.80;;
2201;SDS011;1107;48.654;9.250;2022-10-16T09:24:11;3.43;;;2.40;;
2201;SDS011;1107;48.654;9.250;2022-10-16T09:26:40;4.50;;;2.90;;
2201;SDS011;1107;48.654;9.250;2022-10-16T09:29:08;3.10;;;2.80;;
2201;SDS011;1107;48.654;9.250;2022-10-16T09:31:38;3.30;;;2.00;;
2201;SDS011;1107;48.654;9.250;2022-10-16T09:34:06;2.83;;;2.63;;
2201;SDS011;1107;48.654;9.250;2022-10-16T09:36:46;2.30;;;2.10;;
2201;SDS011;1107;48.654;9.250;2022-10-16T09:39:13;2.60;;;2.40;;
2201;SDS011;1107;48.654;9.250;2022-10-16T09:41:41;1.90;;;1.70;;
2201;SDS011;1107;48.654;9.250;2022-10-16T09:44:16;3.13;;;2.00;;
2201;SDS011;1107;48.654;9.250;2022-10-16T09:46:46;1.57;;;1.27;;
2201;SDS011;1107;48.654;9.250;2022-10-16T09:49:22;2.37;;;2.17;;
2201;SDS011;1107;48.654;9.250;2022-10-16T09:51:50;4.37;;;1.80;;
2201;SDS011;1107;48.654;9.250;2022-10-16T09:54:19;3.30;;;1.67;;
2201;SDS011;1107;48.654;9.250;2022-10-16T09:56:47;1.60;;;1.40;;
2201;SDS011;1107;48.654;9.250;2022-10-16T09:59:17;2.60;;;1.63;;
2201;SDS011;1107;48.654;9.250;2022-10-16T10:01:45;4.07;;;1.87;;
2201;SDS011;1107;48.654;9.250;2022-10-16T10:04:14;2.00;;;1.70;;
2201;SDS011;1107;48.654;9.250;2022-10-16T10:06:43;2.00;;;1.80;;
2201;SDS011;1107;48.654;9.250;2022-10-16T10:09:19;1.50;;;1.20;;
2201;SDS011;1107;48.654;9.250;2022-10-16T10:11:48;1.93;;;1.73;;
2201;SDS011;1107;48.654;9.250;2022-10-16T10:14:21;8.03;;;1.80;;
2201;SDS011;1107;48.654;9.250;2022-10-16T10:17:06;13.53;;;2.17;;
2201;SDS011;1107;48.654;9.250;2022-10-16T10:19:39;3.00;;;1.80;;
2201;SDS011;1107;48.654;9.250;2022-10-16T10:22:21;2.10;;;1.87;;
2201;SDS011;1107;48.654;9.250;2022-10-16T10:25:00;2.03;;;1.83;;
2201;SDS011;1107;48.654;9.250;2022-10-16T10:27:42;2.23;;;2.03;;
2201;SDS011;1107;48.654;9.250;2022-10-16T10:30:24;2.17;;;1.90;;
2201;SDS011;1107;48.654;9.250;2022-10-16T10:32:56;1.87;;;1.77;;
2201;SDS011;1107;48.654;9.250;2022-10-16T10:35:40;2.10;;;1.90;;
2201;SDS011;1107;48.654;9.250;2022-10-16T10:38:27;1.90;;;1.60;;
2201;SDS011;1107;48.654;9.250;2022-10-16T10:41:08;3.67;;;1.53;;
2201;SDS011;1107;48.654;9.250;2022-10-16T10:43:50;1.90;;;1.67;;
2201;SDS011;1107;48.654;9.250;2022-10-16T10:46:29;1.90;;;1.80;;
2201;SDS011;1107;48.654;9.250;2022-10-16T10:49:08;4.63;;;2.10;;
2201;SDS011;1107;48.654;9.250;2022-10-16T10:51:49;2.03;;;1.83;;
2201;SDS011;1107;48.654;9.250;2022-10-16T10:54:26;1.83;;;1.73;;
2201;SDS011;1107;48.654;9.250;2022-10-16T10:56:58;1.90;;;1.80;;
2201;SDS011;1107;48.654;9.250;2022-10-16T10:59:45;5.40;;;1.80;;
2201;SDS011;1107;48.654;9.250;2022-10-16T11:02:22;2.10;;;1.90;;
2201;SDS011;1107;48.654;9.250;2022-10-16T11:05:00;2.00;;;1.80;;
2201;SDS011;1107;48.654;9.250;2022-10-16T11:07:39;2.77;;;1.70;;
2201;SDS011;1107;48.654;9.250;2022-10-16T11:10:14;7.77;;;1.80;;
2201;SDS011;1107;48.654;9.250;2022-10-16T11:12:45;6.50;;;1.70;;
2201;SDS011;1107;48.654;9.250;2022-10-16T11:15:17;1.80;;;1.70;;
2201;SDS011;1107;48.654;9.250;2022-10-16T11:17:48;1.90;;;1.77;;
2201;SDS011;1107;48.654;9.250;2022-10-16T11:20:20;1.67;;;1.50;;
2201;SDS011;1107;48.654;9.250;2022-10-16T11:22:51;1.60;;;1.40;;
2201;SDS011;1107;48.654;9.250;2022-10-16T11:25:24;2.97;;;1.80;;
2201;SDS011;1107;48.654;9.250;2022-10-16T11:27:54;1.80;;;1.70;;
2201;SDS011;1107;48.654;9.250;2022-10-16T11:30:25;2.00;;;1.73;;
2201;SDS011;1107;48.654;9.250;2022-10-16T11:33:00;1.87;;;1.60;;
2201;SDS011;1107;48.654;9.250;2022-10-16T11:35:38;1.53;;;1.37;;
2201;SDS011;1107;48.654;9.250;2022-10-16T11:38:11;3.43;;;1.80;;
2201;SDS011;1107;48.654;9.250;2022-10-16T11:40:43;1.70;;;1.60;;
2201;SDS011;1107;48.654;9.250;2022-10-16T11:43:16;2.13;;;1.70;;
2201;SDS011;1107;48.654;9.250;2022-10-16T11:45:49;1.60;;;1.50;;
2201;SDS011;1107;48.654;9.250;2022-10-16T11:48:21;3.40;;;1.40;;
2201;SDS011;1107;48.654;9.250;2022-10-16T11:50:53;1.80;;;1.70;;
2201;SDS011;1107;48.654;9.250;2022-10-16T11:53:23;1.90;;;1.80;;
2201;SDS011;1107;48.654;9.250;2022-10-16T11:56:02;3.30;;;1.90;;
2201;SDS011;1107;48.654;9.250;2022-10-16T11:58:31;1.70;;;1.60;;
2201;SDS011;1107;48.654;9.250;2022-10-16T12:01:05;1.60;;;1.43;;
2201;SDS011;1107;48.654;9.250;2022-10-16T12:03:44;1.87;;;1.77;;
2201;SDS011;1107;48.654;9.250;2022-10-16T12:06:18;1.90;;;1.80;;
2201;SDS011;1107;48.654;9.250;2022-10-16T12:08:54;1.63;;;1.53;;
2201;SDS011;1107;48.654;9.250;2022-10-16T12:11:30;2.00;;;1.80;;
2201;SDS011;1107;48.654;9.250;2022-10-16T12:14:07;1.50;;;1.33;;
2201;SDS011;1107;48.654;9.250;2022-10-16T12:16:54;1.70;;;1.60;;
2201;SDS011;1107;48.654;9.250;2022-10-16T12:19:23;4.10;;;1.93;;
2201;SDS011;1107;48.654;9.250;2022-10-16T12:21:52;1.60;;;1.40;;
2201;SDS011;1107;48.654;9.250;2022-10-16T12:24:27;1.90;;;1.80;;
2201;SDS011;1107;48.654;9.250;2022-10-16T12:27:00;1.80;;;1.70;;
2201;SDS011;1107;48.654;9.250;2022-10-16T12:29:33;5.43;;;1.40;;
2201;SDS011;1107;48.654;9.250;2022-10-16T12:32:03;1.70;;;1.60;;
2201;SDS011;1107;48.654;9.250;2022-10-16T12:34:37;6.43;;;1.60;;
2201;SDS011;1107;48.654;9.250;2022-10-16T12:37:13;2.10;;;1.30;;
2201;SDS011;1107;48.654;9.250;2022-10-16T12:39:44;1.70;;;1.60;;
2201;SDS011;1107;48.654;9.250;2022-10-16T12:42:33;4.50;;;1.70;;
2201;SDS011;1107;48.654;9.250;2022-10-16T12:45:01;14.83;;;1.80;;
2201;SDS011;1107;48.654;9.250;2022-10-16T12:47:47;2.30;;;2.10;;
2201;SDS011;1107;48.654;9.250;2022-10-16T12:50:31;1.70;;;1.57;;
2201;SDS011;1107;48.654;9.250;2022-10-16T12:53:00;1.80;;;1.40;;
2201;SDS011;1107;48.654;9.250;2022-10-16T12:55:34;1.80;;;1.53;;
2201;SDS011;1107;48.654;9.250;2022-10-16T12:58:22;2.53;;;1.70;;
2201;SDS011;1107;48.654;9.250;2022-10-16T13:01:02;1.73;;;1.63;;
2201;SDS011;1107;48.654;9.250;2022-10-16T13:03:42;1.70;;;1.40;;
2201;SDS011;1107;48.654;9.250;2022-10-16T13:06:26;8.63;;;1.60;;
2201;SDS011;1107;48.654;9.250;2022-10-16T13:09:13;1.60;;;1.30;;
2201;SDS011;1107;48.654;9.250;2022-10-16T13:11:52;1.90;;;1.80;;
2201;SDS011;1107;48.654;9.250;2022-10-16T13:14:35;1.83;;;1.73;;
2201;SDS011;1107;48.654;9.250;2022-10-16T13:17:22;3.00;;;1.97;;
2201;SDS011;1107;48.654;9.250;2022-10-16T13:19:58;6.90;;;1.50;;
2201;SDS011;1107;48.654;9.250;2022-10-16T13:22:37;4.10;;;1.70;;
2201;SDS011;1107;48.654;9.250;2022-10-16T13:25:18;2.93;;;1.93;;
2201;SDS011;1107;48.654;9.250;2022-10-16T13:27:52;2.93;;;1.70;;
2201;SDS011;1107;48.654;9.250;2022-10-16T13:30:24;1.80;;;1.70;;
2201;SDS011;1107;48.654;9.250;2022-10-16T13:32:55;2.03;;;1.83;;
2201;SDS011;1107;48.654;9.250;2022-10-16T13:35:26;1.90;;;1.80;;
2201;SDS011;1107;48.654;9.250;2022-10-16T13:38:03;2.00;;;1.90;;
2201;SDS011;1107;48.654;9.250;2022-10-16T13:40:47;1.70;;;1.50;;
2201;SDS011;1107;48.654;9.250;2022-10-16T13:43:19;3.40;;;1.90;;
2201;SDS011;1107;48.654;9.250;2022-10-16T13:45:56;1.97;;;1.77;;
2201;SDS011;1107;48.654;9.250;2022-10-16T13:48:25;1.60;;;1.40;;
2201;SDS011;1107;48.654;9.250;2022-10-16T13:53:41;3.00;;;1.43;;
2201;SDS011;1107;48.654;9.250;2022-10-16T13:56:10;1.60;;;1.50;;
2201;SDS011;1107;48.654;9.250;2022-10-16T13:58:38;1.87;;;1.70;;
2201;SDS011;1107;48.654;9.250;2022-10-16T14:01:18;1.70;;;1.60;;
2201;SDS011;1107;48.654;9.250;2022-10-16T14:03:49;2.00;;;1.80;;
2201;SDS011;1107;48.654;9.250;2022-10-16T14:06:17;2.80;;;1.70;;
2201;SDS011;1107;48.654;9.250;2022-10-16T14:08:49;2.37;;;1.43;;
2201;SDS011;1107;48.654;9.250;2022-10-16T14:11:20;2.63;;;1.70;;
2201;SDS011;1107;48.654;9.250;2022-10-16T14:13:49;1.90;;;1.80;;
2201;SDS011;1107;48.654;9.250;2022-10-16T14:16:18;3.10;;;1.80;;
2201;SDS011;1107;48.654;9.250;2022-10-16T14:18:50;1.90;;;1.70;;
2201;SDS011;1107;48.654;9.250;2022-10-16T14:21:22;2.07;;;1.87;;
2201;SDS011;1107;48.654;9.250;2022-10-16T14:23:50;2.10;;;1.90;;
2201;SDS011;1107;48.654;9.250;2022-10-16T14:26:18;3.40;;;1.50;;
2201;SDS011;1107;48.654;9.250;2022-10-16T14:28:47;2.63;;;2.00;;
2201;SDS011;1107;48.654;9.250;2022-10-16T14:31:25;1.70;;;1.53;;
2201;SDS011;1107;48.654;9.250;2022-10-16T14:33:54;3.77;;;1.90;;
2201;SDS011;1107;48.654;9.250;2022-10-16T14:36:21;1.80;;;1.57;;
2201;SDS011;1107;48.654;9.250;2022-10-16T14:38:52;1.90;;;1.77;;
2201;SDS011;1107;48.654;9.250;2022-10-16T14:41:27;1.87;;;1.77;;
2201;SDS011;1107;48.654;9.250;2022-10-16T14:43:56;1.60;;;1.47;;
2201;SDS011;1107;48.654;9.250;2022-10-16T14:46:31;1.97;;;1.83;;
2201;SDS011;1107;48.654;9.250;2022-10-16T14:49:03;1.70;;;1.57;;
2201;SDS011;1107;48.654;9.250;2022-10-16T14:51:39;1.70;;;1.57;;
2201;SDS011;1107;48.654;9.250;2022-10-16T14:54:10;1.57;;;1.33;;
2201;SDS011;1107;48.654;9.250;2022-10-16T14:56:42;7.73;;;1.63;;
2201;SDS011;1107;48.654;9.250;2022-10-16T14:59:13;1.60;;;1.50;;
2201;SDS011;1107;48.654;9.250;2022-10-16T15:01:45;1.80;;;1.60;;
2201;SDS011;1107;48.654;9.250;2022-10-16T15:04:12;1.73;;;1.63;;
2201;SDS011;1107;48.654;9.250;2022-10-16T15:06:40;1.73;;;1.53;;
2201;SDS011;1107;48.654;9.250;2022-10-16T15:09:07;1.83;;;1.73;;
2201;SDS011;1107;48.654;9.250;2022-10-16T15:11:34;1.93;;;1.83;;
2201;SDS011;1107;48.654;9.250;2022-10-16T15:14:01;1.63;;;1.53;;
2201;SDS011;1107;48.654;9.250;2022-10-16T15:16:29;1.90;;;1.63;;
2201;SDS011;1107;48.654;9.250;2022-10-16T15:18:58;2.13;;;1.93;;
2201;SDS011;1107;48.654;9.250;2022-10-16T15:21:25;1.50;;;1.40;;
2201;SDS011;1107;48.654;9.250;2022-10-16T15:23:54;1.83;;;1.73;;
2201;SDS011;1107;48.654;9.250;2022-10-16T15:26:22;6.67;;;1.93;;
2201;SDS011;1107;48.654;9.250;2022-10-16T15:28:50;4.57;;;2.10;;
2201;SDS011;1107;48.654;9.250;2022-10-16T15:31:17;2.20;;;2.00;;
2201;SDS011;1107;48.654;9.250;2022-10-16T15:33:44;2.10;;;1.90;;
2201;SDS011;1107;48.654;9.250;2022-10-16T15:36:19;1.80;;;1.50;;
2201;SDS011;1107;48.654;9.250;2022-10-16T15:38:51;6.83;;;1.73;;
2201;SDS011;1107;48.654;9.250;2022-10-16T15:41:18;2.07;;;1.87;;